createdAt,value
2023-05-22T00:02:00.249Z,12.63
2023-05-22T00:04:30.155Z,11.90
2023-05-22T00:06:56.883Z,12.70
2023-05-22T00:09:25.512Z,14.02
2023-05-22T00:11:52.749Z,12.10
2023-05-22T00:14:19.452Z,12.95
2023-05-22T00:16:48.473Z,14.50
2023-05-22T00:19:17.425Z,14.85
2023-05-22T00:21:44.694Z,13.88
2023-05-22T00:24:11.423Z,16.10
2023-05-22T00:26:38.113Z,15.40
2023-05-22T00:29:05.973Z,15.30
2023-05-22T00:31:32.700Z,16.73
2023-05-22T00:33:59.760Z,13.80
2023-05-22T00:36:26.482Z,14.10
2023-05-22T00:38:53.144Z,15.65
2023-05-22T00:41:19.806Z,13.98
2023-05-22T00:43:47.634Z,15.27
2023-05-22T00:46:14.559Z,13.73
2023-05-22T00:48:41.295Z,15.45
2023-05-22T00:51:08.661Z,14.73
2023-05-22T00:53:35.470Z,15.10
2023-05-22T00:56:02.136Z,13.88
2023-05-22T00:58:28.823Z,13.40
2023-05-22T01:00:56.074Z,14.27
2023-05-22T01:03:26.858Z,13.20
2023-05-22T01:05:54.783Z,14.10
2023-05-22T01:08:21.745Z,15.18
2023-05-22T01:10:53.411Z,15.27
2023-05-22T01:13:30.665Z,14.57
2023-05-22T01:16:07.171Z,14.27
2023-05-22T01:18:52.638Z,13.63
2023-05-22T01:21:30.391Z,13.93
2023-05-22T01:24:16.289Z,14.15
2023-05-22T01:27:14.784Z,13.88
2023-05-22T01:29:42.741Z,13.82
2023-05-22T01:32:10.795Z,12.82
2023-05-22T01:34:38.658Z,14.57
2023-05-22T01:37:06.176Z,14.70
2023-05-22T01:39:33.126Z,14.02
2023-05-22T01:41:59.873Z,15.07
2023-05-22T01:44:26.574Z,16.17
2023-05-22T01:46:53.207Z,13.88
2023-05-22T01:49:19.918Z,14.95
2023-05-22T01:52:03.793Z,15.88
2023-05-22T01:54:43.913Z,16.27
2023-05-22T01:57:20.116Z,16.90
2023-05-22T01:59:54.666Z,17.48
2023-05-22T02:02:22.154Z,16.15
2023-05-22T02:05:10.418Z,14.47
2023-05-22T02:10:05.987Z,15.80
2023-05-22T02:12:33.333Z,15.30
2023-05-22T02:14:59.984Z,16.77
2023-05-22T02:17:27.152Z,15.10
2023-05-22T02:19:53.771Z,12.35
2023-05-22T02:22:20.407Z,12.25
2023-05-22T02:24:48.089Z,13.15
2023-05-22T02:27:14.703Z,14.73
2023-05-22T02:29:41.330Z,14.25
2023-05-22T02:32:08.259Z,14.60
2023-05-22T02:34:35.074Z,15.10
2023-05-22T02:37:06.111Z,16.50
2023-05-22T02:39:32.733Z,16.50
2023-05-22T02:41:59.321Z,15.25
2023-05-22T02:44:26.024Z,16.75
2023-05-22T02:46:52.891Z,17.42
2023-05-22T02:49:19.587Z,16.55
2023-05-22T02:51:47.872Z,15.55
2023-05-22T02:54:15.959Z,15.48
2023-05-22T02:56:43.414Z,15.63
2023-05-22T02:59:10.229Z,15.00
2023-05-22T03:01:38.978Z,15.27
2023-05-22T03:04:06.799Z,14.45
2023-05-22T03:06:35.342Z,15.32
2023-05-22T03:09:03.969Z,15.15
2023-05-22T03:13:57.849Z,15.25
2023-05-22T03:16:25.054Z,16.65
2023-05-22T03:18:53.476Z,16.95
2023-05-22T03:21:20.098Z,17.17
2023-05-22T03:23:47.324Z,17.92
2023-05-22T03:26:13.947Z,19.15
2023-05-22T03:28:40.741Z,16.65
2023-05-22T03:31:09.476Z,16.73
2023-05-22T03:33:36.164Z,18.17
2023-05-22T03:36:03.632Z,17.52
2023-05-22T03:38:30.297Z,17.90
2023-05-22T03:40:56.907Z,16.40
2023-05-22T03:43:23.494Z,16.85
2023-05-22T03:45:50.160Z,15.93
2023-05-22T03:48:16.796Z,17.55
2023-05-22T03:50:43.469Z,16.67
2023-05-22T03:53:10.134Z,16.23
2023-05-22T03:55:36.760Z,15.23
2023-05-22T03:58:03.365Z,15.23
2023-05-22T04:00:29.974Z,15.00
2023-05-22T04:02:58.787Z,15.75
2023-05-22T04:05:25.704Z,14.38
2023-05-22T04:07:52.357Z,13.13
2023-05-22T04:10:22.568Z,14.00
2023-05-22T04:12:49.904Z,14.48
2023-05-22T04:15:16.595Z,13.48
2023-05-22T04:17:43.233Z,14.48
2023-05-22T04:20:11.313Z,13.52
2023-05-22T04:22:38.583Z,14.40
2023-05-22T04:25:05.594Z,13.95
2023-05-22T04:27:33.290Z,13.85
2023-05-22T04:30:00.731Z,13.60
2023-05-22T04:32:27.651Z,13.40
2023-05-22T04:34:54.352Z,13.15
2023-05-22T04:37:21.020Z,13.10
2023-05-22T04:39:47.942Z,12.52
2023-05-22T04:42:15.935Z,12.27
2023-05-22T04:44:42.692Z,12.23
2023-05-22T04:47:14.442Z,12.15
2023-05-22T04:49:42.549Z,12.77
2023-05-22T04:52:11.584Z,12.77
2023-05-22T04:54:43.351Z,13.00
2023-05-22T04:57:10.101Z,13.48
2023-05-22T04:59:38.072Z,13.32
2023-05-22T05:02:08.053Z,12.32
2023-05-22T05:04:35.074Z,13.85
2023-05-22T05:07:02.462Z,14.68
2023-05-22T05:09:29.410Z,13.88
2023-05-22T05:11:56.291Z,13.75
2023-05-22T05:14:23.034Z,13.82
2023-05-22T05:16:51.847Z,13.25
2023-05-22T05:19:21.485Z,15.05
2023-05-22T05:21:49.386Z,16.55
2023-05-22T05:24:18.003Z,15.60
2023-05-22T05:29:12.746Z,14.48
2023-05-22T05:31:39.925Z,14.95
2023-05-22T05:34:06.584Z,14.23
2023-05-22T05:36:33.193Z,15.57
2023-05-22T05:38:59.901Z,14.93
2023-05-22T05:41:26.810Z,13.55
2023-05-22T05:43:53.419Z,14.20
2023-05-22T05:46:20.139Z,12.75
2023-05-22T05:48:46.881Z,15.85
2023-05-22T05:51:13.564Z,14.73
2023-05-22T05:53:42.848Z,14.43
2023-05-22T05:56:09.794Z,14.07
2023-05-22T05:58:36.858Z,15.40
2023-05-22T06:01:03.823Z,13.77
2023-05-22T06:03:30.921Z,13.05
2023-05-22T06:05:58.192Z,12.48
2023-05-22T06:08:24.974Z,12.68
2023-05-22T06:10:51.699Z,12.30
2023-05-22T06:13:18.275Z,12.55
2023-05-22T06:15:44.930Z,11.35
2023-05-22T06:18:11.940Z,11.52
2023-05-22T06:20:39.922Z,11.98
2023-05-22T06:23:07.377Z,11.40
2023-05-22T06:25:34.835Z,12.30
2023-05-22T06:28:02.240Z,11.93
2023-05-22T06:30:39.504Z,11.43
2023-05-22T06:33:08.063Z,11.13
2023-05-22T06:35:34.884Z,12.98
2023-05-22T06:38:02.036Z,12.40
2023-05-22T06:40:28.840Z,12.30
2023-05-22T06:42:55.705Z,12.93
2023-05-22T06:45:22.330Z,12.57
2023-05-22T06:47:53.025Z,11.80
2023-05-22T06:50:20.703Z,12.52
2023-05-22T06:52:47.311Z,12.70
2023-05-22T06:55:13.958Z,12.95
2023-05-22T06:57:40.641Z,13.00
2023-05-22T07:00:10.641Z,14.25
2023-05-22T07:02:37.360Z,12.15
2023-05-22T07:05:04.642Z,12.80
2023-05-22T07:07:31.653Z,11.65
2023-05-22T07:09:58.250Z,11.00
2023-05-22T07:12:26.313Z,12.15
2023-05-22T07:14:53.148Z,11.32
2023-05-22T07:17:21.805Z,11.65
2023-05-22T07:19:48.711Z,11.45
2023-05-22T07:22:15.714Z,11.75
2023-05-22T07:24:42.379Z,12.95
2023-05-22T07:27:09.388Z,11.93
2023-05-22T07:29:36.316Z,11.75
2023-05-22T07:32:03.446Z,13.30
2023-05-22T07:34:34.163Z,12.93
2023-05-22T07:37:06.301Z,13.65
2023-05-22T07:39:32.885Z,12.48
2023-05-22T07:41:59.577Z,14.48
2023-05-22T07:44:28.048Z,12.82
2023-05-22T07:46:55.620Z,11.75
2023-05-22T07:49:23.655Z,12.27
2023-05-22T07:51:50.264Z,12.52
2023-05-22T07:54:18.269Z,11.88
2023-05-22T07:56:45.870Z,13.77
2023-05-22T07:59:12.640Z,12.70
2023-05-22T08:01:41.751Z,12.70
2023-05-22T08:04:08.969Z,12.75
2023-05-22T08:06:35.955Z,13.43
2023-05-22T08:09:02.990Z,12.07
2023-05-22T08:11:29.579Z,11.80
2023-05-22T08:13:56.483Z,11.98
2023-05-22T08:16:23.434Z,12.23
2023-05-22T08:18:50.476Z,12.02
2023-05-22T08:21:17.385Z,12.75
2023-05-22T08:23:44.054Z,11.38
2023-05-22T08:26:10.793Z,11.20
2023-05-22T08:28:39.791Z,13.07
2023-05-22T08:31:06.795Z,13.73
2023-05-22T08:33:33.441Z,13.40
2023-05-22T08:36:00.030Z,13.20
2023-05-22T08:38:26.719Z,14.77
2023-05-22T08:40:55.623Z,11.85
2023-05-22T08:43:22.369Z,11.70
2023-05-22T08:46:09.345Z,13.18
2023-05-22T08:48:36.097Z,14.02
2023-05-22T08:51:04.528Z,13.27
2023-05-22T08:56:06.746Z,13.80
2023-05-22T08:58:37.804Z,14.18
2023-05-22T09:01:06.556Z,13.65
2023-05-22T09:03:34.403Z,13.45
2023-05-22T09:06:01.874Z,12.68
2023-05-22T09:08:29.171Z,12.18
2023-05-22T09:10:56.438Z,13.75
2023-05-22T09:13:31.005Z,13.80
2023-05-22T09:16:11.478Z,14.25
2023-05-22T09:18:38.893Z,14.73
2023-05-22T09:21:11.498Z,14.05
2023-05-22T09:23:49.984Z,11.95
2023-05-22T09:26:16.651Z,12.20
2023-05-22T09:28:43.273Z,12.05
2023-05-22T09:31:09.984Z,12.52
2023-05-22T09:33:37.549Z,11.43
2023-05-22T09:36:04.473Z,10.93
2023-05-22T09:38:31.396Z,9.80
2023-05-22T09:40:58.044Z,10.07
2023-05-22T09:43:27.943Z,9.65
2023-05-22T09:46:01.059Z,9.98
2023-05-22T09:48:27.798Z,9.88
2023-05-22T09:50:55.960Z,9.98
2023-05-22T09:55:53.284Z,9.05
2023-05-22T09:58:20.308Z,8.40
2023-05-22T10:00:48.707Z,9.45
2023-05-22T10:03:17.398Z,9.25
2023-05-22T10:05:47.678Z,9.45
2023-05-22T10:08:15.441Z,9.68
2023-05-22T10:10:43.591Z,9.85
2023-05-22T10:15:36.686Z,8.00
2023-05-22T10:18:03.467Z,8.48
2023-05-22T10:20:30.734Z,8.68
2023-05-22T10:22:57.420Z,7.20
2023-05-22T10:25:24.073Z,7.85
2023-05-22T10:27:54.918Z,8.60
2023-05-22T10:30:27.584Z,7.75
2023-05-22T10:33:03.068Z,8.15
2023-05-22T10:35:39.328Z,8.90
2023-05-22T10:38:37.819Z,8.10
2023-05-22T10:41:04.703Z,8.25
2023-05-22T10:43:34.125Z,9.30
2023-05-22T10:46:04.861Z,9.32
2023-05-22T10:48:45.359Z,10.55
2023-05-22T10:51:20.916Z,8.52
2023-05-22T10:53:57.703Z,13.10
2023-05-22T10:56:25.648Z,9.55
2023-05-22T10:59:05.088Z,9.80
2023-05-22T11:01:36.274Z,9.88
2023-05-22T11:04:08.814Z,12.05
2023-05-22T11:07:05.388Z,11.85
2023-05-22T11:09:32.745Z,10.63
2023-05-22T11:12:35.086Z,9.68
2023-05-22T11:15:09.666Z,8.30
2023-05-22T11:17:39.333Z,10.75
2023-05-22T11:20:12.898Z,9.45
2023-05-22T11:22:43.970Z,8.75
2023-05-22T11:25:16.681Z,8.20
2023-05-22T11:27:43.844Z,8.95
2023-05-22T11:30:11.726Z,7.77
2023-05-22T11:32:40.545Z,8.63
2023-05-22T11:35:08.629Z,8.68
2023-05-22T11:37:39.857Z,9.02
2023-05-22T11:40:07.652Z,8.80
2023-05-22T11:42:36.210Z,10.35
2023-05-22T11:45:03.897Z,10.55
2023-05-22T11:47:30.938Z,9.85
2023-05-22T11:49:58.139Z,11.70
2023-05-22T11:52:24.788Z,13.35
2023-05-22T11:54:54.722Z,11.05
2023-05-22T11:57:22.929Z,10.63
2023-05-22T11:59:49.591Z,8.85
2023-05-22T12:02:16.884Z,10.95
2023-05-22T12:04:43.481Z,14.07
2023-05-22T12:07:10.225Z,10.70
2023-05-22T12:09:39.597Z,12.13
2023-05-22T12:12:06.630Z,13.52
2023-05-22T12:14:33.248Z,14.60
2023-05-22T12:17:00.785Z,13.10
2023-05-22T12:19:27.870Z,11.68
2023-05-22T12:21:54.702Z,15.65
2023-05-22T12:24:23.418Z,11.57
2023-05-22T12:26:53.895Z,10.50
2023-05-22T12:29:23.717Z,10.40
2023-05-22T12:31:51.162Z,10.43
2023-05-22T12:34:19.217Z,11.40
2023-05-22T12:36:47.256Z,10.10
2023-05-22T12:39:18.054Z,11.60
2023-05-22T12:41:45.736Z,11.57
2023-05-22T12:44:12.897Z,12.98
2023-05-22T12:46:41.234Z,11.75
2023-05-22T12:51:34.713Z,12.43
2023-05-22T12:54:04.270Z,11.10
2023-05-22T12:56:31.528Z,12.75
2023-05-22T12:58:58.708Z,12.32
2023-05-22T13:01:25.793Z,10.25
2023-05-22T13:03:52.940Z,9.65
2023-05-22T13:06:20.457Z,9.45
2023-05-22T13:08:47.522Z,13.73
2023-05-22T13:11:14.323Z,10.52
2023-05-22T13:13:41.128Z,10.63
2023-05-22T13:16:09.701Z,9.48
2023-05-22T13:18:36.515Z,12.23
2023-05-22T13:21:03.285Z,11.20
2023-05-22T13:23:29.976Z,11.18
2023-05-22T13:25:56.652Z,10.50
2023-05-22T13:28:23.359Z,12.65
2023-05-22T13:30:50.021Z,11.70
2023-05-22T13:33:16.810Z,14.05
2023-05-22T13:35:43.593Z,12.10
2023-05-22T13:38:10.599Z,14.23
2023-05-22T13:40:37.221Z,14.18
2023-05-22T13:43:03.902Z,13.50
2023-05-22T13:45:32.446Z,14.90
2023-05-22T13:47:59.290Z,14.75
2023-05-22T13:50:25.965Z,14.27
2023-05-22T13:52:52.574Z,13.63
2023-05-22T13:55:19.242Z,13.30
2023-05-22T13:57:46.683Z,13.48
2023-05-22T14:00:14.025Z,14.83
2023-05-22T14:02:40.957Z,13.80
2023-05-22T14:05:08.862Z,13.20
2023-05-22T14:07:35.768Z,13.57
2023-05-22T14:10:04.392Z,13.13
2023-05-22T14:12:31.082Z,13.85
2023-05-22T14:14:57.804Z,13.40
2023-05-22T14:17:24.564Z,13.27
2023-05-22T14:19:51.730Z,12.45
2023-05-22T14:22:18.452Z,11.50
2023-05-22T14:24:45.134Z,11.50
2023-05-22T14:27:12.002Z,11.50
2023-05-22T14:29:38.886Z,10.70
2023-05-22T14:32:05.876Z,10.65
2023-05-22T14:34:32.782Z,10.75
2023-05-22T14:36:59.538Z,10.13
2023-05-22T14:39:26.236Z,11.65
2023-05-22T14:41:53.821Z,11.43
2023-05-22T14:44:22.486Z,10.93
2023-05-22T14:46:51.035Z,9.55
2023-05-22T14:49:17.837Z,9.55
2023-05-22T14:51:48.356Z,10.82
2023-05-22T14:54:19.266Z,12.70
2023-05-22T14:56:46.356Z,11.02
2023-05-22T14:59:13.100Z,11.48
2023-05-22T15:01:40.021Z,12.23
2023-05-22T15:04:08.663Z,9.55
2023-05-22T15:06:35.455Z,12.20
2023-05-22T15:09:02.078Z,12.25
2023-05-22T15:11:28.817Z,12.70
2023-05-22T15:13:55.522Z,12.27
2023-05-22T15:16:22.601Z,11.93
2023-05-22T15:18:49.340Z,10.32
2023-05-22T15:21:16.838Z,12.10
2023-05-22T15:23:43.449Z,11.97
2023-05-22T15:26:10.202Z,10.20
2023-05-22T15:28:36.828Z,11.00
2023-05-22T15:31:03.445Z,11.55
2023-05-22T15:33:30.285Z,11.70
2023-05-22T15:35:56.907Z,11.88
2023-05-22T15:38:23.482Z,8.40
2023-05-22T15:40:50.095Z,6.35
2023-05-22T15:43:16.983Z,6.15
2023-05-22T15:45:47.014Z,6.28
2023-05-22T15:48:13.810Z,5.47
2023-05-22T15:50:40.728Z,6.05
2023-05-22T15:53:07.331Z,5.28
2023-05-22T15:55:34.063Z,5.10
2023-05-22T15:58:01.474Z,5.75
2023-05-22T16:00:28.317Z,5.63
2023-05-22T16:02:55.058Z,5.38
2023-05-22T16:05:22.096Z,5.22
2023-05-22T16:07:48.723Z,5.43
2023-05-22T16:10:15.563Z,5.20
2023-05-22T16:12:42.139Z,5.63
2023-05-22T16:15:09.477Z,5.03
2023-05-22T16:17:36.239Z,5.00
2023-05-22T16:20:04.740Z,4.97
2023-05-22T16:22:44.157Z,5.10
2023-05-22T16:25:18.118Z,4.85
2023-05-22T16:27:44.731Z,5.18
2023-05-22T16:30:12.278Z,5.35
2023-05-22T16:32:39.232Z,5.25
2023-05-22T16:35:06.262Z,4.85
2023-05-22T16:37:33.586Z,4.90
2023-05-22T16:40:00.407Z,4.80
2023-05-22T16:42:27.266Z,5.10
2023-05-22T16:44:53.980Z,5.40
2023-05-22T16:47:21.763Z,5.85
2023-05-22T16:49:48.397Z,5.28
2023-05-22T16:52:16.372Z,5.70
2023-05-22T16:54:42.975Z,6.40
2023-05-22T16:57:09.557Z,5.28
2023-05-22T16:59:36.170Z,5.78
2023-05-22T17:02:02.864Z,5.63
2023-05-22T17:04:29.488Z,6.20
2023-05-22T17:06:56.318Z,5.72
2023-05-22T17:09:22.916Z,5.82
2023-05-22T17:11:49.647Z,5.40
2023-05-22T17:14:16.444Z,5.32
2023-05-22T17:16:43.120Z,4.88
2023-05-22T17:19:09.951Z,5.95
2023-05-22T17:21:37.975Z,6.00
2023-05-22T17:24:04.966Z,6.13
2023-05-22T17:26:33.540Z,6.15
2023-05-22T17:29:00.273Z,6.57
2023-05-22T17:31:27.189Z,6.63
2023-05-22T17:33:53.941Z,7.32
2023-05-22T17:36:20.719Z,8.02
2023-05-22T17:38:47.957Z,6.43
2023-05-22T17:41:14.577Z,7.75
2023-05-22T17:43:41.187Z,8.00
2023-05-22T17:46:07.867Z,7.25
2023-05-22T17:48:34.574Z,7.90
2023-05-22T17:51:01.307Z,6.68
2023-05-22T17:53:32.104Z,7.60
2023-05-22T17:55:58.718Z,8.40
2023-05-22T17:58:25.644Z,8.35
2023-05-22T18:00:52.359Z,8.77
2023-05-22T18:03:22.350Z,10.95
2023-05-22T18:05:49.959Z,10.27
2023-05-22T18:08:17.680Z,10.80
2023-05-22T18:10:44.564Z,10.50
2023-05-22T18:13:11.386Z,11.15
2023-05-22T18:15:38.217Z,9.98
2023-05-22T18:18:05.022Z,9.23
2023-05-22T18:20:33.106Z,6.07
2023-05-22T18:23:00.293Z,6.35
2023-05-22T18:25:26.975Z,7.05
2023-05-22T18:27:53.646Z,7.15
2023-05-22T18:30:20.654Z,7.88
2023-05-22T18:32:47.416Z,6.60
2023-05-22T18:35:14.095Z,5.10
2023-05-22T18:37:41.083Z,5.60
2023-05-22T18:40:09.457Z,4.53
2023-05-22T18:45:02.759Z,3.45
2023-05-22T18:47:29.582Z,4.18
2023-05-22T18:49:56.261Z,3.63
2023-05-22T18:52:22.885Z,3.65
2023-05-22T18:54:49.525Z,4.13
2023-05-22T18:57:16.259Z,4.60
2023-05-22T18:59:43.528Z,4.50
2023-05-22T19:02:10.184Z,3.97
2023-05-22T19:04:36.861Z,4.95
2023-05-22T19:07:03.654Z,4.97
2023-05-22T19:09:30.340Z,5.28
2023-05-22T19:11:56.968Z,5.18
2023-05-22T19:14:23.560Z,6.13
2023-05-22T19:16:50.194Z,6.32
2023-05-22T19:19:16.900Z,6.35
2023-05-22T19:21:43.562Z,7.93
2023-05-22T19:24:10.187Z,7.43
2023-05-22T19:26:36.819Z,8.93
2023-05-22T19:29:03.542Z,8.00
2023-05-22T19:31:30.219Z,8.90
2023-05-22T19:33:57.002Z,10.63
2023-05-22T19:36:23.675Z,10.48
2023-05-22T19:38:51.282Z,10.10
2023-05-22T19:41:19.986Z,11.10
2023-05-22T19:43:46.628Z,11.32
2023-05-22T19:46:13.449Z,11.80
2023-05-22T19:48:40.125Z,11.88
2023-05-22T19:51:08.729Z,11.75
2023-05-22T19:53:35.362Z,13.85
2023-05-22T19:56:02.667Z,12.93
2023-05-22T19:58:29.328Z,13.48
2023-05-22T20:00:55.989Z,13.63
2023-05-22T20:03:23.458Z,12.60
2023-05-22T20:05:52.924Z,14.53
2023-05-22T20:08:21.690Z,13.23
2023-05-22T20:10:48.756Z,16.27
2023-05-22T20:13:15.517Z,20.55
2023-05-22T20:15:42.324Z,19.20
2023-05-22T20:18:11.010Z,26.45
2023-05-22T20:20:37.993Z,31.05
2023-05-22T20:23:04.660Z,34.80
2023-05-22T20:25:31.341Z,37.97
2023-05-22T20:27:58.028Z,40.65
2023-05-22T20:30:24.650Z,42.38
2023-05-22T20:32:52.038Z,51.70
2023-05-22T20:35:20.187Z,50.63
2023-05-22T20:37:47.543Z,49.88
2023-05-22T20:40:15.103Z,51.28
2023-05-22T20:42:42.829Z,51.63
2023-05-22T20:45:14.561Z,49.85
2023-05-22T20:47:42.001Z,46.97
2023-05-22T20:50:09.163Z,50.42
2023-05-22T20:52:37.319Z,49.05
2023-05-22T20:55:04.486Z,49.95
2023-05-22T20:57:31.147Z,45.35
2023-05-22T20:59:58.464Z,47.38
2023-05-22T21:02:26.063Z,44.22
2023-05-22T21:04:53.100Z,47.50
2023-05-22T21:07:19.828Z,45.08
2023-05-22T21:09:46.502Z,39.33
2023-05-22T21:12:13.211Z,41.08
2023-05-22T21:14:40.339Z,40.15
2023-05-22T21:17:07.328Z,40.97
2023-05-22T21:19:34.135Z,37.45
2023-05-22T21:22:00.798Z,42.72
2023-05-22T21:24:27.459Z,45.55
2023-05-22T21:26:54.070Z,40.33
2023-05-22T21:29:20.776Z,41.15
2023-05-22T21:31:47.431Z,42.35
2023-05-22T21:34:14.690Z,39.38
2023-05-22T21:36:41.355Z,36.30
2023-05-22T21:39:07.991Z,36.65
2023-05-22T21:41:34.809Z,32.28
2023-05-22T21:44:01.579Z,29.05
2023-05-22T21:46:28.242Z,29.75
2023-05-22T21:48:54.899Z,27.40
2023-05-22T21:51:21.535Z,25.35
2023-05-22T21:53:48.121Z,26.20
2023-05-22T21:56:14.753Z,24.75
2023-05-22T21:58:41.387Z,24.58
2023-05-22T22:01:08.055Z,24.80
2023-05-22T22:03:34.923Z,25.15
2023-05-22T22:06:01.729Z,26.38
2023-05-22T22:08:29.433Z,28.45
2023-05-22T22:10:56.254Z,26.40
2023-05-22T22:13:22.885Z,25.33
2023-05-22T22:15:49.618Z,25.20
2023-05-22T22:18:16.308Z,25.95
2023-05-22T22:20:45.308Z,25.23
2023-05-22T22:23:12.679Z,27.60
2023-05-22T22:25:39.635Z,26.30
2023-05-22T22:28:07.424Z,27.30
2023-05-22T22:30:35.262Z,25.55
2023-05-22T22:33:02.388Z,28.23
2023-05-22T22:35:29.143Z,24.83
2023-05-22T22:37:55.801Z,25.27
2023-05-22T22:40:23.374Z,24.83
2023-05-22T22:42:51.641Z,25.27
2023-05-22T22:45:18.288Z,23.88
2023-05-22T22:47:45.962Z,25.95
2023-05-22T22:50:12.695Z,24.25
2023-05-22T22:52:41.689Z,25.15
2023-05-22T22:55:09.086Z,24.60
2023-05-22T22:57:36.061Z,23.83
2023-05-22T23:00:02.732Z,23.02
2023-05-22T23:02:29.397Z,23.80
2023-05-22T23:04:56.315Z,21.65
2023-05-22T23:07:24.130Z,20.08
2023-05-22T23:09:50.740Z,19.50
2023-05-22T23:12:17.359Z,18.85
2023-05-22T23:14:44.913Z,17.45
2023-05-22T23:17:11.558Z,19.97
2023-05-22T23:19:38.169Z,19.20
2023-05-22T23:22:04.885Z,18.23
2023-05-22T23:24:31.556Z,19.85
2023-05-22T23:26:58.158Z,18.73
2023-05-22T23:29:24.913Z,17.40
2023-05-22T23:31:51.674Z,16.15
2023-05-22T23:34:19.075Z,14.50
2023-05-22T23:36:45.685Z,14.88
2023-05-22T23:39:12.357Z,15.43
2023-05-22T23:41:38.947Z,16.08
2023-05-22T23:44:06.250Z,16.45
2023-05-22T23:46:32.884Z,15.38
2023-05-22T23:48:59.517Z,13.70
2023-05-22T23:51:26.120Z,14.93
2023-05-22T23:53:52.867Z,14.80
2023-05-22T23:56:19.486Z,14.45
2023-05-22T23:58:46.094Z,13.68
